Mound, TX (76558)

10:05 PM CST on December 27, 2014 (GMT -0600)
GATESVILLE, TX (12 Miles SE) | Change Station
CLOSE
Current Station
Personal Weather Station
Location: Leon Junction, TX
Elevation: 760 ft
Nearby Weather Stations

Elev 760 ft 31.34 °N, 97.57 °W | Updated 1 second ago

Overcast
Overcast
39.6 °F
Feels Like 32 °F
N
14.0
Wind Variable Wind from NNW
Gusts 15.0 mph

Today
High -- | Low -- °F
--% Chance of Precip.
Yesterday
High -- | Low -- °F
Precip. -- in
7:27 AM 5:35 PM
Waxing Crescent, 43% visible
Pressure 30.29 in
Visibility 10.0 miles
Clouds Overcast 6000 ft
Windchill 32 °F
Dew Point 31 °F
Humidity 72%
Rainfall 0.00 in
Snow Depth Not available.
UV 0 out of 12
Pollen 9.60 out of 12
Air Quality Not available.
Flu Activity Not available.
METAR KHLR 280358Z AUTO 34013KT 10SM OVC060 03/M01 A3028 RMK AO2 SLP256 T00301014

More Conditions Fewer Conditions

Pressure 30.29 in
Visibility 10.0 miles
Clouds Overcast 6000 ft
Windchill 32 °F
Dew Point 31 °F
Humidity 72%
Rainfall 0.00 in
Snow Depth Not available.
UV 0 out of 12
Pollen 9.60 out of 12
Air Quality Not available.
Flu Activity Not available.
METAR KHLR 280358Z AUTO 34013KT 10SM OVC060 03/M01 A3028 RMK AO2 SLP256 T00301014

More Conditions Fewer Conditions

10-Day Weather Forecast

Almanac

Astronomy

Dec. 27, 2014 Rise Set
Actual Time
Civil Twilight
Nautical Twilight
Astronomical Twilight
Moon
Length of Visible Light
Length of Day
Tomorrow will be .
, % of the Moon is Illuminated

Today's Extremes

State Highs State Lows

Community

WunderPhotos

Upload Photos

1,781,187 photos uploaded!

WunderBlogs® & News

Nearby

Air Quality

  Air Quality AQ Index Pollutant
Not available.

Snow Depth

Station Depth Elevation

Earthquake Activity

City Distance Mag. Time & Date
Minimum magnitude displayed is 2.5.

Coastal Water Temperatures

Place Temperature

Nearby Weather Stations